Time;durP1;ratioP1;P1;durP2;ratioP2;P2;SDS_P1;SDS_P2;PMS_P1;PMS_P2;Temp;Humidity;BMP_temperature;BMP_pressure;BME280_temperature;BME280_humidity;BME280_pressure;Samples;Min_cycle;Max_cycle;Signal;HPM_P1;HPM_P2
2021/08/03 00:02:18;;;;;;;4.73;1.80;;;;;;;14.02;67.43;100227.86;22249355;77;99431;-81
2021/08/03 00:32:19;;;;;;;6.37;2.13;;;;;;;13.40;69.79;100229.14;22286230;77;99227;-82
2021/08/03 01:02:20;;;;;;;5.13;2.13;;;;;;;12.90;71.41;100246.20;22092400;77;99490;-82
2021/08/03 01:32:33;;;;;;;6.95;2.40;;;;;;;12.48;73.23;100262.20;22250873;77;99263;-82
2021/08/03 02:02:35;;;;;;;6.83;2.40;;;;;;;12.14;74.72;100274.77;22281497;77;99699;-81
2021/08/03 02:33:06;;;;;;;6.17;2.20;;;;;;;12.21;76.23;100291.33;22246913;77;99209;-82
2021/08/03 03:03:12;;;;;;;6.10;2.67;;;;;;;12.64;77.48;100306.77;22278856;78;99258;-82
2021/08/03 03:33:13;;;;;;;5.87;2.25;;;;;;;12.40;77.30;100315.02;22268086;77;99376;-82
2021/08/03 04:03:19;;;;;;;5.22;2.40;;;;;;;11.97;77.62;100325.73;21399896;79;99746;-81
2021/08/03 04:33:20;;;;;;;6.53;2.87;;;;;;;11.72;79.30;100333.13;20856102;82;99778;-81
2021/08/03 05:03:21;;;;;;;5.72;3.00;;;;;;;11.84;80.59;100345.97;21514562;80;99652;-82
2021/08/03 05:33:21;;;;;;;6.50;2.30;;;;;;;12.41;81.55;100342.81;21564769;80;99574;-80
2021/08/03 06:03:22;;;;;;;8.85;2.17;;;;;;;14.03;80.66;100363.64;21547157;80;100045;-81
2021/08/03 06:33:23;;;;;;;5.65;1.75;;;;;;;18.68;71.75;100363.66;21524573;80;99760;-79
2021/08/03 07:03:31;;;;;;;4.03;1.30;;;;;;;22.18;61.98;100356.71;21328583;80;99782;-83
2021/08/03 07:33:31;;;;;;;4.83;1.45;;;;;;;22.82;55.64;100364.88;21213971;81;99246;-82
2021/08/03 08:03:34;;;;;;;3.47;0.98;;;;;;;21.54;55.54;100365.04;21576971;80;99196;-83
2021/08/03 08:33:35;;;;;;;6.58;2.00;;;;;;;21.23;54.62;100376.09;21686355;80;99551;-82
2021/08/03 09:03:38;;;;;;;2.62;1.22;;;;;;;23.43;51.91;100366.97;21278237;80;99615;-82
2021/08/03 09:33:44;;;;;;;2.20;1.00;;;;;;;27.47;46.20;100363.52;21246940;81;99548;-82
2021/08/03 10:03:45;;;;;;;5.03;1.10;;;;;;;28.94;38.71;100367.05;21213763;80;99478;-82
2021/08/03 10:33:47;;;;;;;4.40;1.50;;;;;;;27.56;38.55;100370.44;21168131;81;99517;-83
2021/08/03 11:03:47;;;;;;;3.50;1.22;;;;;;;26.93;39.29;100374.14;20996348;82;99284;-83
2021/08/03 11:33:56;;;;;;;3.50;1.30;;;;;;;25.36;40.48;100382.75;21810653;78;99342;-81
2021/08/03 12:04:05;;;;;;;3.95;1.62;;;;;;;24.35;42.24;100380.59;21947192;78;99731;-83
2021/08/03 12:34:15;;;;;;;3.85;1.50;;;;;;;26.23;39.13;100333.67;22004628;78;99670;-82
2021/08/03 13:04:15;;;;;;;3.55;1.35;;;;;;;27.76;36.95;100309.02;21878735;78;99225;-81
2021/08/03 13:34:16;;;;;;;3.50;1.60;;;;;;;28.47;35.92;100287.77;21817867;79;99537;-82
2021/08/03 14:04:17;;;;;;;4.00;1.40;;;;;;;28.08;35.73;100249.84;21844448;79;99320;-83
2021/08/03 14:34:18;;;;;;;3.50;1.17;;;;;;;27.97;36.66;100227.73;21815567;79;99676;-82
2021/08/03 15:04:19;;;;;;;2.30;1.50;;;;;;;27.56;37.59;100191.69;21487501;79;99573;-83
2021/08/03 15:34:19;;;;;;;1.60;1.10;;;;;;;26.59;37.50;100189.95;21528903;79;99163;-84
2021/08/03 16:04:20;;;;;;;4.45;1.95;;;;;;;25.99;38.24;100165.78;21125714;79;99461;-84
2021/08/03 16:34:24;;;;;;;4.12;2.15;;;;;;;24.87;39.14;100173.22;21072386;82;99623;-85
2021/08/03 17:04:45;;;;;;;4.95;2.50;;;;;;;23.94;39.96;100182.45;21092079;81;99761;-84
2021/08/03 17:34:46;;;;;;;3.37;2.15;;;;;;;23.40;41.45;100176.13;21090558;82;99691;-81
2021/08/03 18:04:47;;;;;;;5.45;2.20;;;;;;;23.14;42.72;100200.91;21134335;82;99641;-84
2021/08/03 18:35:04;;;;;;;5.78;2.22;;;;;;;22.58;45.26;100208.16;21908513;78;139199;-83
2021/08/03 19:05:10;;;;;;;4.35;1.70;;;;;;;21.62;48.20;100203.89;21966175;78;99500;-84
2021/08/03 19:35:11;;;;;;;5.72;2.00;;;;;;;20.36;51.41;100227.88;22025582;78;99226;-81
2021/08/03 20:05:15;;;;;;;7.58;2.42;;;;;;;19.54;54.29;100241.31;22073765;78;99780;-82
2021/08/03 20:35:25;;;;;;;7.30;2.47;;;;;;;18.90;56.51;100265.13;22116068;78;99390;-83
2021/08/03 21:05:26;;;;;;;8.98;3.08;;;;;;;17.89;60.55;100275.84;22098120;78;99244;-83
2021/08/03 21:35:27;;;;;;;8.00;3.25;;;;;;;17.29;62.24;100290.91;22022659;78;99282;-84
2021/08/03 22:05:27;;;;;;;;;;;;;;;16.56;64.91;100290.78;22112596;78;99451;-80
2021/08/03 22:35:28;;;;;;;9.27;3.77;;;;;;;15.98;69.63;100266.95;22096411;78;85687;-80
2021/08/03 23:05:29;;;;;;;9.88;4.60;;;;;;;15.47;69.85;100273.38;22105194;78;99322;-80
2021/08/03 23:35:30;;;;;;;7.65;3.87;;;;;;;15.21;71.98;100276.16;22096044;78;99340;-81
